createdAt,value
2019-03-26T00:01:16.283Z,3.80
2019-03-26T00:06:20.094Z,2.63
2019-03-26T00:11:23.593Z,3.90
2019-03-26T00:16:27.033Z,2.37
2019-03-26T00:21:31.266Z,2.67
2019-03-26T00:26:35.143Z,3.77
2019-03-26T00:31:39.017Z,4.00
2019-03-26T00:36:42.439Z,4.60
2019-03-26T00:41:45.964Z,3.73
2019-03-26T00:46:49.369Z,2.77
2019-03-26T00:51:53.497Z,4.73
2019-03-26T00:56:56.911Z,4.30
2019-03-26T01:02:00.838Z,4.37
2019-03-26T01:07:04.728Z,4.67
2019-03-26T01:12:08.584Z,3.97
2019-03-26T01:17:12.518Z,4.93
2019-03-26T01:22:16.690Z,3.70
2019-03-26T01:27:19.359Z,4.43
2019-03-26T01:32:23.173Z,3.73
2019-03-26T01:37:27.589Z,4.60
2019-03-26T01:42:34.508Z,4.73
2019-03-26T01:47:38.333Z,3.53
2019-03-26T01:52:42.490Z,3.40
2019-03-26T01:57:46.727Z,4.40
2019-03-26T02:02:50.468Z,3.57
2019-03-26T02:07:55.811Z,4.60
2019-03-26T02:12:59.719Z,3.97
2019-03-26T02:18:02.872Z,4.50
2019-03-26T02:23:06.629Z,3.70
2019-03-26T02:28:13.197Z,3.50
2019-03-26T02:33:16.739Z,3.97
2019-03-26T02:38:20.177Z,3.60
2019-03-26T02:43:24.389Z,3.67
2019-03-26T02:48:27.805Z,4.07
2019-03-26T02:53:30.917Z,3.40
2019-03-26T02:58:34.744Z,5.70
2019-03-26T03:03:38.915Z,5.50
2019-03-26T03:08:42.701Z,4.27
2019-03-26T03:13:46.525Z,3.40
2019-03-26T03:18:49.955Z,3.47
2019-03-26T03:23:53.868Z,3.90
2019-03-26T03:28:58.101Z,3.73
2019-03-26T03:34:02.091Z,3.50
2019-03-26T03:39:07.096Z,4.20
2019-03-26T03:44:10.188Z,4.00
2019-03-26T03:49:16.056Z,5.13
2019-03-26T03:54:20.706Z,3.20
2019-03-26T03:59:26.020Z,3.40
2019-03-26T04:04:29.889Z,4.00
2019-03-26T04:09:33.996Z,3.70
2019-03-26T04:14:37.905Z,3.60
2019-03-26T04:19:41.876Z,3.87
2019-03-26T04:24:45.694Z,4.13
2019-03-26T04:29:49.472Z,2.80
2019-03-26T04:34:52.829Z,3.87
2019-03-26T04:39:56.653Z,2.37
2019-03-26T04:45:00.486Z,2.80
2019-03-26T04:50:04.671Z,2.20
2019-03-26T04:55:08.609Z,3.00
2019-03-26T05:00:12.483Z,2.40
2019-03-26T05:05:16.292Z,1.93
2019-03-26T05:10:19.519Z,2.57
2019-03-26T05:15:23.685Z,2.30
2019-03-26T05:20:27.525Z,1.60
2019-03-26T05:25:30.645Z,1.63
2019-03-26T05:30:34.141Z,1.97
2019-03-26T05:35:37.912Z,2.03
2019-03-26T05:40:41.956Z,2.53
2019-03-26T05:45:45.414Z,2.57
2019-03-26T05:50:49.177Z,2.90
2019-03-26T05:55:52.262Z,2.10
2019-03-26T06:00:56.282Z,2.50
2019-03-26T06:05:59.497Z,4.90
2019-03-26T06:11:02.617Z,3.10
2019-03-26T06:16:05.690Z,2.23
2019-03-26T06:21:08.747Z,2.73
2019-03-26T06:26:12.579Z,2.00
2019-03-26T06:31:16.466Z,1.70
2019-03-26T06:36:19.919Z,2.37
2019-03-26T06:41:24.105Z,1.70
2019-03-26T06:46:27.963Z,1.77
2019-03-26T06:51:31.801Z,1.50
2019-03-26T06:56:35.291Z,1.27
2019-03-26T07:01:39.148Z,1.97
2019-03-26T07:06:43.367Z,1.53
2019-03-26T07:11:46.462Z,2.00
2019-03-26T07:16:50.309Z,2.60
2019-03-26T07:21:54.119Z,2.17
2019-03-26T07:26:58.557Z,1.80
2019-03-26T07:32:02.663Z,2.27
2019-03-26T07:37:06.855Z,2.17
2019-03-26T07:42:11.073Z,1.67
2019-03-26T07:47:14.890Z,2.13
2019-03-26T07:52:18.296Z,2.20
2019-03-26T07:57:22.482Z,2.00
2019-03-26T08:02:25.539Z,2.33
2019-03-26T08:07:29.369Z,2.50
2019-03-26T08:12:33.019Z,4.03
2019-03-26T08:17:36.286Z,1.63
2019-03-26T08:22:39.717Z,2.20
2019-03-26T08:27:43.188Z,2.60
2019-03-26T08:32:47.048Z,2.20
2019-03-26T08:37:50.856Z,2.23
2019-03-26T08:42:55.016Z,1.70
2019-03-26T08:47:59.194Z,1.87
2019-03-26T08:53:03.069Z,2.07
2019-03-26T08:58:07.302Z,2.03
2019-03-26T09:03:11.359Z,1.30
2019-03-26T09:08:24.888Z,1.67
2019-03-26T09:13:20.571Z,2.27
2019-03-26T09:18:23.266Z,1.73
2019-03-26T09:23:26.734Z,1.80
2019-03-26T09:28:30.972Z,1.73
2019-03-26T09:33:34.662Z,2.20
2019-03-26T09:38:39.491Z,1.77
2019-03-26T09:43:43.271Z,1.60
2019-03-26T09:48:47.013Z,2.87
2019-03-26T09:53:50.812Z,1.53
2019-03-26T09:58:54.329Z,1.53
2019-03-26T10:03:58.557Z,1.60
2019-03-26T10:09:02.480Z,1.63
2019-03-26T10:14:05.907Z,1.57
2019-03-26T10:19:10.068Z,1.77
2019-03-26T10:24:13.613Z,2.17
2019-03-26T10:29:29.568Z,1.80
2019-03-26T10:34:22.920Z,1.47
2019-03-26T10:39:26.686Z,2.37
2019-03-26T10:44:30.554Z,1.50
2019-03-26T10:49:34.053Z,1.67
2019-03-26T10:54:38.219Z,1.50
2019-03-26T10:59:41.769Z,1.30
2019-03-26T11:04:45.569Z,2.50
2019-03-26T11:09:49.050Z,1.87
2019-03-26T11:14:53.260Z,1.83
2019-03-26T11:19:56.650Z,2.10
2019-03-26T11:24:59.731Z,2.73
2019-03-26T11:30:04.107Z,2.10
2019-03-26T11:35:08.824Z,2.10
2019-03-26T11:40:12.955Z,2.37
2019-03-26T11:45:17.258Z,1.77
2019-03-26T11:50:20.728Z,1.70
2019-03-26T11:55:24.868Z,2.00
2019-03-26T12:00:31.747Z,1.77
2019-03-26T12:05:35.568Z,2.50
2019-03-26T12:10:39.052Z,2.17
2019-03-26T12:15:43.261Z,1.60
2019-03-26T12:20:48.230Z,2.10
2019-03-26T12:25:52.099Z,1.80
2019-03-26T12:30:55.701Z,1.40
2019-03-26T12:35:59.120Z,1.57
2019-03-26T12:41:03.296Z,1.60
2019-03-26T12:46:07.132Z,1.77
2019-03-26T12:51:11.418Z,1.63
2019-03-26T12:56:15.243Z,1.30
2019-03-26T13:01:18.655Z,2.00
2019-03-26T13:06:22.548Z,1.70
2019-03-26T13:11:26.431Z,1.47
2019-03-26T13:16:30.516Z,2.03
2019-03-26T13:21:37.335Z,1.80
2019-03-26T13:26:39.877Z,1.80
2019-03-26T13:31:43.962Z,1.80
2019-03-26T13:36:47.473Z,2.10
2019-03-26T13:41:51.306Z,2.20
2019-03-26T13:46:55.528Z,2.40
2019-03-26T13:51:59.062Z,2.10
2019-03-26T13:57:02.886Z,1.63
2019-03-26T14:02:06.694Z,2.10
2019-03-26T14:07:10.679Z,2.40
2019-03-26T14:12:14.636Z,2.53
2019-03-26T14:17:18.151Z,2.70
2019-03-26T14:22:22.384Z,2.33
2019-03-26T14:27:25.436Z,2.70
2019-03-26T14:32:28.878Z,2.10
2019-03-26T14:37:32.763Z,2.00
2019-03-26T14:42:36.930Z,1.83
2019-03-26T14:47:40.527Z,1.77
2019-03-26T14:52:44.018Z,2.23
2019-03-26T14:57:47.545Z,2.00
2019-03-26T15:02:51.659Z,2.50
2019-03-26T15:07:55.206Z,2.30
2019-03-26T15:12:59.016Z,1.83
2019-03-26T15:18:02.632Z,1.67
2019-03-26T15:23:06.827Z,1.83
2019-03-26T15:28:11.883Z,1.60
2019-03-26T15:33:16.385Z,1.50
2019-03-26T15:38:20.259Z,1.17
2019-03-26T15:43:24.302Z,1.67
2019-03-26T15:48:27.432Z,1.70
2019-03-26T15:53:30.905Z,1.60
2019-03-26T15:58:34.754Z,2.30
2019-03-26T16:03:38.999Z,1.70
2019-03-26T16:08:43.193Z,2.37
2019-03-26T16:13:47.482Z,2.30
2019-03-26T16:18:51.592Z,1.10
2019-03-26T16:23:55.764Z,1.10
2019-03-26T16:28:59.623Z,1.10
2019-03-26T16:34:03.293Z,1.50
2019-03-26T16:39:08.038Z,0.97
2019-03-26T16:44:11.926Z,1.50
2019-03-26T16:49:15.724Z,1.20
2019-03-26T16:54:20.016Z,1.00
2019-03-26T16:59:24.188Z,1.17
2019-03-26T17:04:28.024Z,1.07
2019-03-26T17:09:38.033Z,1.50
2019-03-26T17:14:42.009Z,1.03
2019-03-26T17:19:46.318Z,1.30
2019-03-26T17:24:50.365Z,1.23
2019-03-26T17:29:55.436Z,0.93
2019-03-26T17:35:01.050Z,1.83
2019-03-26T17:40:05.668Z,1.50
2019-03-26T17:45:10.263Z,1.80
2019-03-26T17:50:14.366Z,1.97
2019-03-26T17:55:18.336Z,1.80
2019-03-26T18:00:37.064Z,1.80
2019-03-26T18:05:46.519Z,1.50
2019-03-26T18:10:51.514Z,1.60
2019-03-26T18:16:08.406Z,3.07
2019-03-26T18:21:13.874Z,2.70
2019-03-26T18:26:19.031Z,2.97
2019-03-26T18:31:22.983Z,1.87
2019-03-26T18:36:27.575Z,2.10
2019-03-26T18:41:34.112Z,2.47
2019-03-26T18:46:46.936Z,1.90
2019-03-26T18:51:55.865Z,1.27
2019-03-26T18:57:01.323Z,1.60
2019-03-26T19:02:08.421Z,1.97
2019-03-26T19:07:12.257Z,1.97
2019-03-26T19:12:15.968Z,2.27
2019-03-26T19:17:21.007Z,1.63
2019-03-26T19:22:30.444Z,1.43
2019-03-26T19:27:35.384Z,2.00
2019-03-26T19:32:40.625Z,1.90
2019-03-26T19:37:44.539Z,1.70
2019-03-26T19:42:48.347Z,1.97
2019-03-26T19:47:52.627Z,2.50
2019-03-26T19:53:01.430Z,3.03
2019-03-26T19:58:07.430Z,3.37
2019-03-26T20:03:12.178Z,2.40
2019-03-26T20:08:17.008Z,3.30
2019-03-26T20:13:24.543Z,2.73
2019-03-26T20:18:32.995Z,3.17
2019-03-26T20:23:41.027Z,2.83
2019-03-26T20:28:47.536Z,2.97
2019-03-26T20:33:54.121Z,3.17
2019-03-26T20:38:58.747Z,3.67
2019-03-26T20:44:02.258Z,4.00
2019-03-26T20:49:06.145Z,3.83
2019-03-26T20:54:12.916Z,3.93
2019-03-26T20:59:17.202Z,3.53
2019-03-26T21:04:22.351Z,3.10
2019-03-26T21:09:27.047Z,4.23
2019-03-26T21:14:31.080Z,4.33
2019-03-26T21:19:34.672Z,4.03
2019-03-26T21:24:39.250Z,4.40
2019-03-26T21:29:43.506Z,4.20
2019-03-26T21:34:48.010Z,4.10
2019-03-26T21:39:51.844Z,3.87
2019-03-26T21:44:55.353Z,4.50
2019-03-26T21:49:58.886Z,4.77
2019-03-26T21:55:02.700Z,3.60
2019-03-26T22:00:08.799Z,5.17
2019-03-26T22:05:12.617Z,5.93
2019-03-26T22:10:16.609Z,4.23
2019-03-26T22:15:20.459Z,4.27
2019-03-26T22:20:24.772Z,6.57
2019-03-26T22:25:29.166Z,5.63
2019-03-26T22:30:32.755Z,5.60
2019-03-26T22:35:36.570Z,4.27
2019-03-26T22:40:40.703Z,4.53
2019-03-26T22:45:44.444Z,3.90
2019-03-26T22:50:48.664Z,4.17
2019-03-26T22:55:52.426Z,3.97
2019-03-26T23:00:56.458Z,3.47
2019-03-26T23:06:00.275Z,4.80
2019-03-26T23:11:03.825Z,4.87
2019-03-26T23:16:08.125Z,5.57
2019-03-26T23:21:11.254Z,4.53
2019-03-26T23:26:15.168Z,4.23
2019-03-26T23:31:18.693Z,4.77
2019-03-26T23:36:22.660Z,5.57
2019-03-26T23:41:26.778Z,4.27
2019-03-26T23:46:30.677Z,4.17
2019-03-26T23:51:34.897Z,5.10
2019-03-26T23:56:38.847Z,5.73
